sensor_id;sensor_type;location;lat;lon;timestamp;pressure;altitude;pressure_sealevel;temperature;humidity
48792;BME280;34587;48.816;9.420;2023-05-19T04:17:07;99244.81;;;10.14;77.64
48792;BME280;34587;48.816;9.420;2023-05-19T04:19:32;99245.72;;;10.10;77.70
48792;BME280;34587;48.816;9.420;2023-05-19T04:21:58;99249.13;;;10.16;77.96
48792;BME280;34587;48.816;9.420;2023-05-19T04:24:23;99241.47;;;10.02;78.72
48792;BME280;34587;48.816;9.420;2023-05-19T04:26:48;99246.53;;;10.15;78.77
48792;BME280;34587;48.816;9.420;2023-05-19T04:29:13;99251.88;;;9.96;81.33
48792;BME280;34587;48.816;9.420;2023-05-19T04:31:42;99250.13;;;9.98;81.08
48792;BME280;34587;48.816;9.420;2023-05-19T04:34:08;99257.81;;;10.04;81.75
48792;BME280;34587;48.816;9.420;2023-05-19T04:36:34;99260.34;;;10.17;80.45
48792;BME280;34587;48.816;9.420;2023-05-19T04:38:59;99260.28;;;10.26;79.89
48792;BME280;34587;48.816;9.420;2023-05-19T04:41:27;99258.47;;;10.34;79.08
48792;BME280;34587;48.816;9.420;2023-05-19T04:43:52;99258.38;;;10.43;78.93
48792;BME280;34587;48.816;9.420;2023-05-19T04:46:18;99248.16;;;10.31;79.08
48792;BME280;34587;48.816;9.420;2023-05-19T04:48:48;99259.19;;;10.51;78.53
48792;BME280;34587;48.816;9.420;2023-05-19T04:51:14;99259.91;;;10.63;77.17
48792;BME280;34587;48.816;9.420;2023-05-19T04:53:40;99259.00;;;10.67;77.46
48792;BME280;34587;48.816;9.420;2023-05-19T04:56:06;99254.50;;;10.84;76.57
48792;BME280;34587;48.816;9.420;2023-05-19T04:58:31;99256.16;;;10.91;75.76
48792;BME280;34587;48.816;9.420;2023-05-19T05:00:57;99255.03;;;11.11;74.86
48792;BME280;34587;48.816;9.420;2023-05-19T05:03:23;99251.50;;;11.18;74.75
48792;BME280;34587;48.816;9.420;2023-05-19T05:05:49;99250.50;;;11.28;74.27
48792;BME280;34587;48.816;9.420;2023-05-19T05:08:14;99255.47;;;11.46;72.64
48792;BME280;34587;48.816;9.420;2023-05-19T05:10:46;99253.69;;;11.48;72.64
48792;BME280;34587;48.816;9.420;2023-05-19T05:13:11;99256.91;;;11.66;72.96
48792;BME280;34587;48.816;9.420;2023-05-19T05:15:37;99260.19;;;11.77;72.10
48792;BME280;34587;48.816;9.420;2023-05-19T05:18:02;99256.59;;;11.87;71.74
48792;BME280;34587;48.816;9.420;2023-05-19T05:20:29;99254.31;;;11.64;71.64
48792;BME280;34587;48.816;9.420;2023-05-19T05:22:55;99256.09;;;11.62;71.31
48792;BME280;34587;48.816;9.420;2023-05-19T05:25:22;99248.16;;;11.70;71.02
48792;BME280;34587;48.816;9.420;2023-05-19T05:27:47;99254.09;;;11.79;70.34
48792;BME280;34587;48.816;9.420;2023-05-19T05:30:12;99248.78;;;11.89;71.27
48792;BME280;34587;48.816;9.420;2023-05-19T05:32:38;99243.97;;;12.20;69.40
48792;BME280;34587;48.816;9.420;2023-05-19T05:35:04;99238.53;;;12.32;68.63
48792;BME280;34587;48.816;9.420;2023-05-19T05:37:29;99238.09;;;12.56;67.72
48792;BME280;34587;48.816;9.420;2023-05-19T05:39:55;99238.97;;;12.55;66.35
48792;BME280;34587;48.816;9.420;2023-05-19T05:42:20;99241.88;;;12.40;66.77
48792;BME280;34587;48.816;9.420;2023-05-19T05:44:45;99245.50;;;12.76;66.66
48792;BME280;34587;48.816;9.420;2023-05-19T05:47:11;99243.41;;;12.95;65.48
48792;BME280;34587;48.816;9.420;2023-05-19T05:49:37;99243.97;;;13.09;64.06
48792;BME280;34587;48.816;9.420;2023-05-19T05:52:03;99248.66;;;13.37;64.24
48792;BME280;34587;48.816;9.420;2023-05-19T05:54:29;99252.28;;;13.30;63.13
48792;BME280;34587;48.816;9.420;2023-05-19T05:56:55;99255.00;;;13.62;63.15
48792;BME280;34587;48.816;9.420;2023-05-19T05:59:21;99250.97;;;13.88;62.35
48792;BME280;34587;48.816;9.420;2023-05-19T06:01:46;99248.72;;;14.08;59.97
48792;BME280;34587;48.816;9.420;2023-05-19T06:04:11;99240.19;;;14.37;60.43
48792;BME280;34587;48.816;9.420;2023-05-19T06:06:37;99243.19;;;14.21;58.72
48792;BME280;34587;48.816;9.420;2023-05-19T06:09:03;99239.34;;;14.70;59.02
48792;BME280;34587;48.816;9.420;2023-05-19T06:11:28;99239.91;;;14.81;55.75
48792;BME280;34587;48.816;9.420;2023-05-19T06:13:54;99245.38;;;14.37;56.75
48792;BME280;34587;48.816;9.420;2023-05-19T06:16:19;99245.66;;;14.27;56.85
48792;BME280;34587;48.816;9.420;2023-05-19T06:18:44;99240.59;;;14.55;56.80
48792;BME280;34587;48.816;9.420;2023-05-19T06:21:10;99239.03;;;15.11;55.61
48792;BME280;34587;48.816;9.420;2023-05-19T06:23:38;99240.22;;;15.31;53.54
48792;BME280;34587;48.816;9.420;2023-05-19T06:26:03;99230.56;;;15.62;53.33
48792;BME280;34587;48.816;9.420;2023-05-19T06:28:29;99240.56;;;16.04;52.65
48792;BME280;34587;48.816;9.420;2023-05-19T06:30:54;99232.34;;;15.60;52.23
48792;BME280;34587;48.816;9.420;2023-05-19T06:33:19;99232.00;;;15.73;52.50
48792;BME280;34587;48.816;9.420;2023-05-19T06:35:45;99233.91;;;15.67;52.92
48792;BME280;34587;48.816;9.420;2023-05-19T06:38:10;99235.53;;;15.98;51.97
48792;BME280;34587;48.816;9.420;2023-05-19T06:40:35;99230.38;;;15.97;51.91
48792;BME280;34587;48.816;9.420;2023-05-19T06:43:01;99231.56;;;15.57;52.69
48792;BME280;34587;48.816;9.420;2023-05-19T06:45:26;99235.88;;;15.87;52.64
48792;BME280;34587;48.816;9.420;2023-05-19T06:47:52;99244.34;;;15.08;53.00
48792;BME280;34587;48.816;9.420;2023-05-19T06:50:18;99237.97;;;14.87;54.17
48792;BME280;34587;48.816;9.420;2023-05-19T06:52:43;99236.09;;;14.61;55.17
48792;BME280;34587;48.816;9.420;2023-05-19T06:55:11;99234.53;;;14.87;54.58
48792;BME280;34587;48.816;9.420;2023-05-19T06:57:36;99236.59;;;14.76;55.09
48792;BME280;34587;48.816;9.420;2023-05-19T07:00:01;99233.47;;;15.24;53.57
48792;BME280;34587;48.816;9.420;2023-05-19T07:02:28;99232.44;;;15.57;52.55
48792;BME280;34587;48.816;9.420;2023-05-19T07:04:53;99230.41;;;14.78;53.18
48792;BME280;34587;48.816;9.420;2023-05-19T07:07:18;99230.22;;;15.15;52.54
48792;BME280;34587;48.816;9.420;2023-05-19T07:09:44;99228.59;;;15.11;53.43
48792;BME280;34587;48.816;9.420;2023-05-19T07:12:09;99237.72;;;15.26;52.75
48792;BME280;34587;48.816;9.420;2023-05-19T07:14:34;99232.91;;;15.12;52.52
48792;BME280;34587;48.816;9.420;2023-05-19T07:17:01;99234.34;;;14.93;53.43
48792;BME280;34587;48.816;9.420;2023-05-19T07:19:26;99233.13;;;14.74;54.12
48792;BME280;34587;48.816;9.420;2023-05-19T07:21:52;99234.22;;;15.27;53.04
48792;BME280;34587;48.816;9.420;2023-05-19T07:24:18;99226.94;;;15.09;52.48
48792;BME280;34587;48.816;9.420;2023-05-19T07:26:45;99246.56;;;14.60;53.16
48792;BME280;34587;48.816;9.420;2023-05-19T07:29:10;99237.69;;;14.33;54.85
48792;BME280;34587;48.816;9.420;2023-05-19T07:31:36;99238.72;;;14.61;54.01
48792;BME280;34587;48.816;9.420;2023-05-19T07:34:01;99235.19;;;14.62;54.09
48792;BME280;34587;48.816;9.420;2023-05-19T07:36:26;99227.78;;;14.80;53.30
48792;BME280;34587;48.816;9.420;2023-05-19T07:38:52;99220.72;;;15.13;53.22
48792;BME280;34587;48.816;9.420;2023-05-19T07:41:17;99225.78;;;15.47;51.73
48792;BME280;34587;48.816;9.420;2023-05-19T07:43:42;99228.69;;;15.08;52.51
48792;BME280;34587;48.816;9.420;2023-05-19T07:46:08;99229.31;;;14.87;53.28
48792;BME280;34587;48.816;9.420;2023-05-19T07:48:33;99223.56;;;15.05;53.69
48792;BME280;34587;48.816;9.420;2023-05-19T07:50:58;99231.16;;;15.13;53.29
48792;BME280;34587;48.816;9.420;2023-05-19T07:53:24;99223.66;;;14.71;53.35
48792;BME280;34587;48.816;9.420;2023-05-19T07:55:49;99230.63;;;14.71;54.52
48792;BME280;34587;48.816;9.420;2023-05-19T07:58:15;99223.41;;;14.80;53.78
48792;BME280;34587;48.816;9.420;2023-05-19T08:00:40;99222.22;;;14.27;54.65
48792;BME280;34587;48.816;9.420;2023-05-19T08:03:07;99218.56;;;14.67;54.79
48792;BME280;34587;48.816;9.420;2023-05-19T08:05:33;99224.47;;;15.04;53.38
48792;BME280;34587;48.816;9.420;2023-05-19T08:07:59;99218.00;;;15.46;53.35
48792;BME280;34587;48.816;9.420;2023-05-19T08:10:24;99218.84;;;15.46;52.53
48792;BME280;34587;48.816;9.420;2023-05-19T08:12:49;99213.63;;;15.46;52.10
48792;BME280;34587;48.816;9.420;2023-05-19T08:15:15;99216.63;;;15.04;52.62
48792;BME280;34587;48.816;9.420;2023-05-19T08:17:40;99207.38;;;15.22;52.37
48792;BME280;34587;48.816;9.420;2023-05-19T08:20:06;99211.16;;;15.13;52.84
48792;BME280;34587;48.816;9.420;2023-05-19T08:22:32;99214.09;;;14.72;53.49
48792;BME280;34587;48.816;9.420;2023-05-19T08:24:58;99199.53;;;14.94;52.88
48792;BME280;34587;48.816;9.420;2023-05-19T08:27:23;99209.88;;;14.97;53.24
48792;BME280;34587;48.816;9.420;2023-05-19T08:29:48;99197.84;;;14.62;53.78
48792;BME280;34587;48.816;9.420;2023-05-19T08:32:13;99212.94;;;14.82;54.32
48792;BME280;34587;48.816;9.420;2023-05-19T08:34:39;99209.91;;;14.66;53.83
48792;BME280;34587;48.816;9.420;2023-05-19T08:37:05;99207.50;;;14.24;54.75
48792;BME280;34587;48.816;9.420;2023-05-19T08:39:31;99214.63;;;14.52;54.08
48792;BME280;34587;48.816;9.420;2023-05-19T08:41:58;99203.22;;;14.87;54.19
48792;BME280;34587;48.816;9.420;2023-05-19T08:44:23;99203.47;;;14.78;53.92
48792;BME280;34587;48.816;9.420;2023-05-19T08:46:49;99201.25;;;14.95;53.33
48792;BME280;34587;48.816;9.420;2023-05-19T08:49:19;99204.13;;;15.15;52.97
48792;BME280;34587;48.816;9.420;2023-05-19T08:51:54;99200.13;;;15.32;52.38
48792;BME280;34587;48.816;9.420;2023-05-19T08:54:24;99196.41;;;15.68;51.67
48792;BME280;34587;48.816;9.420;2023-05-19T08:56:51;99192.22;;;15.63;52.08
48792;BME280;34587;48.816;9.420;2023-05-19T08:59:18;99193.34;;;15.54;52.37
48792;BME280;34587;48.816;9.420;2023-05-19T09:01:44;99199.56;;;15.50;51.58
48792;BME280;34587;48.816;9.420;2023-05-19T09:04:10;99198.34;;;15.34;51.56
48792;BME280;34587;48.816;9.420;2023-05-19T09:06:36;99192.56;;;15.23;52.18
48792;BME280;34587;48.816;9.420;2023-05-19T09:09:05;99198.63;;;15.25;52.88
48792;BME280;34587;48.816;9.420;2023-05-19T09:11:30;99198.91;;;15.15;52.51
48792;BME280;34587;48.816;9.420;2023-05-19T09:13:55;99189.13;;;15.22;51.74
48792;BME280;34587;48.816;9.420;2023-05-19T09:16:21;99189.22;;;15.19;52.63
48792;BME280;34587;48.816;9.420;2023-05-19T09:18:56;99189.97;;;14.95;53.46
48792;BME280;34587;48.816;9.420;2023-05-19T09:21:29;99190.41;;;15.66;52.27
48792;BME280;34587;48.816;9.420;2023-05-19T09:24:03;99183.91;;;15.50;51.52
48792;BME280;34587;48.816;9.420;2023-05-19T09:26:39;99191.59;;;15.83;50.72
48792;BME280;34587;48.816;9.420;2023-05-19T09:29:15;99190.41;;;15.66;50.54
48792;BME280;34587;48.816;9.420;2023-05-19T09:32:07;99191.31;;;15.36;51.21
48792;BME280;34587;48.816;9.420;2023-05-19T09:34:32;99195.31;;;15.48;50.86
48792;BME280;34587;48.816;9.420;2023-05-19T09:36:57;99185.53;;;15.82;50.62
48792;BME280;34587;48.816;9.420;2023-05-19T09:39:24;99188.75;;;15.62;51.13
48792;BME280;34587;48.816;9.420;2023-05-19T09:41:53;99193.22;;;15.59;51.27
48792;BME280;34587;48.816;9.420;2023-05-19T09:44:27;99196.34;;;15.72;50.55
48792;BME280;34587;48.816;9.420;2023-05-19T09:46:56;99184.78;;;15.79;50.63
48792;BME280;34587;48.816;9.420;2023-05-19T09:49:27;99182.97;;;16.32;49.98
48792;BME280;34587;48.816;9.420;2023-05-19T09:51:58;99187.09;;;16.39;48.87
48792;BME280;34587;48.816;9.420;2023-05-19T09:54:25;99182.66;;;15.90;49.48
48792;BME280;34587;48.816;9.420;2023-05-19T09:57:03;99183.97;;;15.77;49.84
48792;BME280;34587;48.816;9.420;2023-05-19T09:59:29;99183.00;;;15.51;50.24
48792;BME280;34587;48.816;9.420;2023-05-19T10:01:56;99184.28;;;15.66;50.66
48792;BME280;34587;48.816;9.420;2023-05-19T10:04:23;99178.22;;;15.65;51.51
48792;BME280;34587;48.816;9.420;2023-05-19T10:06:49;99177.59;;;15.57;51.30
48792;BME280;34587;48.816;9.420;2023-05-19T10:09:22;99170.78;;;15.80;51.56
48792;BME280;34587;48.816;9.420;2023-05-19T10:11:55;99164.22;;;16.19;50.41
48792;BME280;34587;48.816;9.420;2023-05-19T10:14:27;99167.06;;;16.87;48.97
48792;BME280;34587;48.816;9.420;2023-05-19T10:16:55;99160.22;;;16.59;49.32
48792;BME280;34587;48.816;9.420;2023-05-19T10:19:23;99164.53;;;16.60;48.78
48792;BME280;34587;48.816;9.420;2023-05-19T10:21:49;99159.84;;;16.45;48.34
48792;BME280;34587;48.816;9.420;2023-05-19T10:24:15;99167.69;;;16.45;48.98
48792;BME280;34587;48.816;9.420;2023-05-19T10:26:55;99166.88;;;16.43;49.04
48792;BME280;34587;48.816;9.420;2023-05-19T10:29:26;99165.88;;;16.95;48.97
48792;BME280;34587;48.816;9.420;2023-05-19T10:31:55;99162.06;;;17.04;48.33
48792;BME280;34587;48.816;9.420;2023-05-19T10:34:58;99163.25;;;16.47;48.48
48792;BME280;34587;48.816;9.420;2023-05-19T10:37:44;99167.75;;;16.18;49.93
48792;BME280;34587;48.816;9.420;2023-05-19T10:40:17;99167.19;;;15.84;50.00
48792;BME280;34587;48.816;9.420;2023-05-19T10:45:35;99170.34;;;15.67;51.01
48792;BME280;34587;48.816;9.420;2023-05-19T10:48:04;99165.88;;;15.14;51.59
48792;BME280;34587;48.816;9.420;2023-05-19T10:50:35;99160.81;;;15.08;51.34
48792;BME280;34587;48.816;9.420;2023-05-19T10:53:01;99162.16;;;15.22;52.00
48792;BME280;34587;48.816;9.420;2023-05-19T10:55:48;99170.38;;;15.65;51.38
48792;BME280;34587;48.816;9.420;2023-05-19T10:58:14;99162.88;;;15.83;50.32
48792;BME280;34587;48.816;9.420;2023-05-19T11:00:40;99165.78;;;15.74;49.76
48792;BME280;34587;48.816;9.420;2023-05-19T11:03:17;99165.88;;;15.71;50.18
48792;BME280;34587;48.816;9.420;2023-05-19T11:05:47;99153.41;;;15.79;49.95
48792;BME280;34587;48.816;9.420;2023-05-19T11:08:17;99153.63;;;15.73;50.38
48792;BME280;34587;48.816;9.420;2023-05-19T11:10:56;99163.72;;;15.55;51.10
48792;BME280;34587;48.816;9.420;2023-05-19T11:13:21;99163.66;;;15.57;51.73
48792;BME280;34587;48.816;9.420;2023-05-19T11:15:46;99160.34;;;15.80;50.83
48792;BME280;34587;48.816;9.420;2023-05-19T11:18:13;99149.72;;;15.86;50.34
48792;BME280;34587;48.816;9.420;2023-05-19T11:20:41;99159.63;;;16.01;49.97
48792;BME280;34587;48.816;9.420;2023-05-19T11:23:13;99160.19;;;16.11;50.07
48792;BME280;34587;48.816;9.420;2023-05-19T11:25:49;99155.13;;;15.80;50.42
48792;BME280;34587;48.816;9.420;2023-05-19T11:28:17;99156.38;;;16.19;50.33
48792;BME280;34587;48.816;9.420;2023-05-19T11:30:50;99158.88;;;16.23;50.19
48792;BME280;34587;48.816;9.420;2023-05-19T11:33:18;99160.19;;;16.11;49.99
48792;BME280;34587;48.816;9.420;2023-05-19T11:35:47;99153.56;;;16.26;49.64
48792;BME280;34587;48.816;9.420;2023-05-19T11:38:15;99162.63;;;16.15;49.77
48792;BME280;34587;48.816;9.420;2023-05-19T11:40:41;99160.88;;;15.89;50.18
48792;BME280;34587;48.816;9.420;2023-05-19T11:43:07;99166.84;;;15.68;50.05
48792;BME280;34587;48.816;9.420;2023-05-19T11:45:33;99158.84;;;15.45;50.96
48792;BME280;34587;48.816;9.420;2023-05-19T11:47:58;99166.25;;;15.58;51.19
48792;BME280;34587;48.816;9.420;2023-05-19T11:50:24;99159.88;;;15.93;51.00
48792;BME280;34587;48.816;9.420;2023-05-19T11:52:50;99150.59;;;16.10;50.67
48792;BME280;34587;48.816;9.420;2023-05-19T11:55:19;99154.94;;;15.58;51.47
48792;BME280;34587;48.816;9.420;2023-05-19T11:58:02;99151.56;;;15.54;51.33
48792;BME280;34587;48.816;9.420;2023-05-19T12:00:33;99152.00;;;15.68;51.41
48792;BME280;34587;48.816;9.420;2023-05-19T12:03:01;99149.41;;;15.68;50.96
48792;BME280;34587;48.816;9.420;2023-05-19T12:05:26;99146.91;;;15.90;50.70
48792;BME280;34587;48.816;9.420;2023-05-19T12:07:53;99137.09;;;15.72;50.90
48792;BME280;34587;48.816;9.420;2023-05-19T12:10:28;99140.28;;;15.80;51.21
48792;BME280;34587;48.816;9.420;2023-05-19T12:12:54;99142.88;;;15.82;50.79
48792;BME280;34587;48.816;9.420;2023-05-19T12:15:20;99142.66;;;16.38;51.08
48792;BME280;34587;48.816;9.420;2023-05-19T12:17:54;99130.16;;;16.46;49.10
48792;BME280;34587;48.816;9.420;2023-05-19T12:20:20;99133.88;;;17.33;48.46
48792;BME280;34587;48.816;9.420;2023-05-19T12:22:46;99137.53;;;17.29;47.74
48792;BME280;34587;48.816;9.420;2023-05-19T12:25:13;99134.94;;;16.83;48.75
48792;BME280;34587;48.816;9.420;2023-05-19T12:27:41;99137.56;;;16.35;48.92
48792;BME280;34587;48.816;9.420;2023-05-19T12:30:07;99128.13;;;17.01;48.66
48792;BME280;34587;48.816;9.420;2023-05-19T12:32:33;99127.28;;;17.66;47.62
48792;BME280;34587;48.816;9.420;2023-05-19T12:35:02;99123.84;;;17.86;46.73
48792;BME280;34587;48.816;9.420;2023-05-19T12:37:28;99134.97;;;17.27;46.77
48792;BME280;34587;48.816;9.420;2023-05-19T12:39:55;99137.09;;;17.17;48.18
48792;BME280;34587;48.816;9.420;2023-05-19T12:42:21;99136.63;;;16.36;48.89
48792;BME280;34587;48.816;9.420;2023-05-19T12:44:48;99140.53;;;16.49;48.78
48792;BME280;34587;48.816;9.420;2023-05-19T12:47:15;99140.84;;;16.40;49.01
48792;BME280;34587;48.816;9.420;2023-05-19T12:52:19;99140.69;;;16.19;49.34
48792;BME280;34587;48.816;9.420;2023-05-19T12:54:47;99140.34;;;16.05;50.03
48792;BME280;34587;48.816;9.420;2023-05-19T12:57:15;99142.88;;;16.32;49.92
48792;BME280;34587;48.816;9.420;2023-05-19T12:59:41;99138.78;;;16.25;49.96
48792;BME280;34587;48.816;9.420;2023-05-19T13:02:07;99143.28;;;16.19;50.06
48792;BME280;34587;48.816;9.420;2023-05-19T13:04:32;99139.47;;;16.53;49.54
48792;BME280;34587;48.816;9.420;2023-05-19T13:06:57;99144.22;;;16.67;49.46
48792;BME280;34587;48.816;9.420;2023-05-19T13:09:22;99136.75;;;16.56;49.12
48792;BME280;34587;48.816;9.420;2023-05-19T13:11:48;99132.78;;;16.69;48.38
48792;BME280;34587;48.816;9.420;2023-05-19T13:14:19;99130.34;;;16.65;48.70
48792;BME280;34587;48.816;9.420;2023-05-19T13:16:45;99125.38;;;16.57;49.00
48792;BME280;34587;48.816;9.420;2023-05-19T13:19:13;99124.66;;;16.77;49.21
48792;BME280;34587;48.816;9.420;2023-05-19T13:21:38;99117.44;;;16.60;49.20
48792;BME280;34587;48.816;9.420;2023-05-19T13:24:04;99126.72;;;16.69;48.66
48792;BME280;34587;48.816;9.420;2023-05-19T13:26:29;99122.91;;;16.54;49.19
48792;BME280;34587;48.816;9.420;2023-05-19T13:28:55;99125.19;;;16.15;49.30
48792;BME280;34587;48.816;9.420;2023-05-19T13:31:20;99116.97;;;16.26;50.13
48792;BME280;34587;48.816;9.420;2023-05-19T13:33:45;99115.50;;;16.65;49.30
48792;BME280;34587;48.816;9.420;2023-05-19T13:36:11;99117.63;;;16.79;48.24
48792;BME280;34587;48.816;9.420;2023-05-19T13:38:36;99118.50;;;17.02;48.79
48792;BME280;34587;48.816;9.420;2023-05-19T13:41:01;99121.50;;;17.14;48.18
48792;BME280;34587;48.816;9.420;2023-05-19T13:43:26;99120.09;;;16.84;48.19
48792;BME280;34587;48.816;9.420;2023-05-19T13:45:52;99114.13;;;16.55;48.67
48792;BME280;34587;48.816;9.420;2023-05-19T13:48:17;99112.72;;;16.70;48.28
48792;BME280;34587;48.816;9.420;2023-05-19T13:50:42;99112.19;;;17.07;48.06
48792;BME280;34587;48.816;9.420;2023-05-19T13:53:07;99105.00;;;17.56;47.50
48792;BME280;34587;48.816;9.420;2023-05-19T13:55:33;99109.63;;;17.28;47.65
48792;BME280;34587;48.816;9.420;2023-05-19T13:57:59;99105.72;;;17.38;47.50
48792;BME280;34587;48.816;9.420;2023-05-19T14:00:24;99110.53;;;17.05;48.84
48792;BME280;34587;48.816;9.420;2023-05-19T14:02:49;99100.84;;;17.51;47.78
48792;BME280;34587;48.816;9.420;2023-05-19T14:05:15;99101.94;;;17.45;47.93
48792;BME280;34587;48.816;9.420;2023-05-19T14:07:40;99094.19;;;17.21;48.30
48792;BME280;34587;48.816;9.420;2023-05-19T14:10:06;99096.28;;;17.34;47.80
48792;BME280;34587;48.816;9.420;2023-05-19T14:12:33;99099.28;;;17.25;48.20
48792;BME280;34587;48.816;9.420;2023-05-19T14:14:59;99096.25;;;17.13;48.31
48792;BME280;34587;48.816;9.420;2023-05-19T14:17:26;99101.94;;;17.01;48.87
48792;BME280;34587;48.816;9.420;2023-05-19T14:19:52;99097.44;;;16.83;48.36
48792;BME280;34587;48.816;9.420;2023-05-19T14:22:17;99096.41;;;16.63;50.34
48792;BME280;34587;48.816;9.420;2023-05-19T14:24:43;99094.81;;;16.59;49.79
48792;BME280;34587;48.816;9.420;2023-05-19T14:27:09;99090.34;;;16.61;50.33
48792;BME280;34587;48.816;9.420;2023-05-19T14:29:34;99096.25;;;16.43;50.06
48792;BME280;34587;48.816;9.420;2023-05-19T14:31:59;99091.19;;;16.38;49.94
48792;BME280;34587;48.816;9.420;2023-05-19T14:34:25;99088.31;;;16.46;50.40
48792;BME280;34587;48.816;9.420;2023-05-19T14:36:50;99083.97;;;16.22;50.95
48792;BME280;34587;48.816;9.420;2023-05-19T14:39:15;99083.69;;;16.53;49.96
48792;BME280;34587;48.816;9.420;2023-05-19T14:41:40;99092.03;;;16.64;49.84
48792;BME280;34587;48.816;9.420;2023-05-19T14:44:06;99088.22;;;16.49;50.49
48792;BME280;34587;48.816;9.420;2023-05-19T14:46:31;99092.19;;;16.36;50.94
48792;BME280;34587;48.816;9.420;2023-05-19T14:48:57;99090.34;;;16.38;50.33
48792;BME280;34587;48.816;9.420;2023-05-19T14:51:22;99092.41;;;16.53;50.27
48792;BME280;34587;48.816;9.420;2023-05-19T14:53:47;99091.50;;;16.54;51.07
48792;BME280;34587;48.816;9.420;2023-05-19T14:56:14;99088.41;;;16.43;51.01
48792;BME280;34587;48.816;9.420;2023-05-19T14:58:39;99096.44;;;16.38;50.72
48792;BME280;34587;48.816;9.420;2023-05-19T15:01:05;99099.56;;;16.48;50.89
48792;BME280;34587;48.816;9.420;2023-05-19T15:03:30;99095.41;;;16.66;50.47
48792;BME280;34587;48.816;9.420;2023-05-19T15:05:55;99097.19;;;16.65;50.84
48792;BME280;34587;48.816;9.420;2023-05-19T15:08:21;99094.25;;;16.75;50.82
48792;BME280;34587;48.816;9.420;2023-05-19T15:10:49;99086.84;;;16.86;50.32
48792;BME280;34587;48.816;9.420;2023-05-19T15:13:14;99082.75;;;16.55;51.10
48792;BME280;34587;48.816;9.420;2023-05-19T15:15:41;99081.25;;;16.73;51.10
48792;BME280;34587;48.816;9.420;2023-05-19T15:18:06;99071.84;;;16.44;51.26
48792;BME280;34587;48.816;9.420;2023-05-19T15:20:31;99067.09;;;16.30;50.91
48792;BME280;34587;48.816;9.420;2023-05-19T15:22:56;99074.72;;;16.60;50.97
48792;BME280;34587;48.816;9.420;2023-05-19T15:25:22;99076.38;;;16.86;50.09
48792;BME280;34587;48.816;9.420;2023-05-19T15:27:47;99077.84;;;16.69;50.78
48792;BME280;34587;48.816;9.420;2023-05-19T15:30:12;99069.78;;;16.76;50.60
48792;BME280;34587;48.816;9.420;2023-05-19T15:32:38;99075.00;;;16.52;51.02
48792;BME280;34587;48.816;9.420;2023-05-19T15:35:03;99072.28;;;16.79;50.49
48792;BME280;34587;48.816;9.420;2023-05-19T15:37:29;99062.16;;;16.93;49.84
48792;BME280;34587;48.816;9.420;2023-05-19T15:39:54;99060.53;;;17.11;49.88
48792;BME280;34587;48.816;9.420;2023-05-19T15:42:19;99061.47;;;16.88;49.79
48792;BME280;34587;48.816;9.420;2023-05-19T15:44:45;99057.63;;;17.18;49.26
48792;BME280;34587;48.816;9.420;2023-05-19T15:47:10;99053.06;;;17.24;49.48
48792;BME280;34587;48.816;9.420;2023-05-19T15:49:36;99046.72;;;17.29;49.29
48792;BME280;34587;48.816;9.420;2023-05-19T15:52:02;99047.56;;;17.50;48.89
48792;BME280;34587;48.816;9.420;2023-05-19T15:54:27;99042.09;;;17.56;49.53
48792;BME280;34587;48.816;9.420;2023-05-19T15:56:53;99039.41;;;17.80;48.54
48792;BME280;34587;48.816;9.420;2023-05-19T15:59:18;99035.47;;;17.68;48.73
48792;BME280;34587;48.816;9.420;2023-05-19T16:01:43;99033.16;;;17.40;48.66
48792;BME280;34587;48.816;9.420;2023-05-19T16:04:09;99029.78;;;17.58;49.45
48792;BME280;34587;48.816;9.420;2023-05-19T16:06:34;99029.03;;;17.55;48.98
48792;BME280;34587;48.816;9.420;2023-05-19T16:08:59;99037.50;;;17.41;48.88
48792;BME280;34587;48.816;9.420;2023-05-19T16:11:25;99030.91;;;17.31;48.82
48792;BME280;34587;48.816;9.420;2023-05-19T16:13:50;99018.44;;;17.37;49.05
48792;BME280;34587;48.816;9.420;2023-05-19T16:16:16;99020.22;;;17.15;49.22
48792;BME280;34587;48.816;9.420;2023-05-19T16:18:42;99011.16;;;17.44;48.75
48792;BME280;34587;48.816;9.420;2023-05-19T16:21:08;99009.66;;;17.59;49.13
48792;BME280;34587;48.816;9.420;2023-05-19T16:23:33;99009.75;;;17.78;49.06
48792;BME280;34587;48.816;9.420;2023-05-19T16:25:58;99006.22;;;17.79;48.88
48792;BME280;34587;48.816;9.420;2023-05-19T16:28:24;99002.00;;;17.54;48.91
48792;BME280;34587;48.816;9.420;2023-05-19T16:30:49;99005.88;;;17.03;50.71
48792;BME280;34587;48.816;9.420;2023-05-19T16:33:14;99006.63;;;16.85;51.44
48792;BME280;34587;48.816;9.420;2023-05-19T16:35:40;99003.44;;;16.53;51.67
48792;BME280;34587;48.816;9.420;2023-05-19T16:38:05;99006.69;;;16.60;51.82
48792;BME280;34587;48.816;9.420;2023-05-19T16:40:30;99005.31;;;16.28;53.08
48792;BME280;34587;48.816;9.420;2023-05-19T16:42:56;99000.56;;;16.15;53.48
48792;BME280;34587;48.816;9.420;2023-05-19T16:45:21;99000.22;;;16.00;53.18
48792;BME280;34587;48.816;9.420;2023-05-19T16:47:46;98995.69;;;16.05;53.16
48792;BME280;34587;48.816;9.420;2023-05-19T16:50:11;99000.47;;;16.17;52.99
48792;BME280;34587;48.816;9.420;2023-05-19T16:52:37;98996.84;;;15.98;54.28
48792;BME280;34587;48.816;9.420;2023-05-19T16:55:03;98994.56;;;15.88;54.27
48792;BME280;34587;48.816;9.420;2023-05-19T16:57:28;98992.75;;;16.14;54.35
48792;BME280;34587;48.816;9.420;2023-05-19T16:59:53;98992.91;;;16.33;53.01
48792;BME280;34587;48.816;9.420;2023-05-19T17:02:19;98997.03;;;16.16;53.79
48792;BME280;34587;48.816;9.420;2023-05-19T17:04:44;98995.19;;;16.18;53.58
48792;BME280;34587;48.816;9.420;2023-05-19T17:07:13;98992.28;;;16.26;54.01
48792;BME280;34587;48.816;9.420;2023-05-19T17:09:42;98996.44;;;16.32;53.66
48792;BME280;34587;48.816;9.420;2023-05-19T17:12:07;98994.28;;;15.96;54.73
48792;BME280;34587;48.816;9.420;2023-05-19T17:14:33;98997.59;;;16.01;55.75
48792;BME280;34587;48.816;9.420;2023-05-19T17:16:58;98994.50;;;15.90;55.78
48792;BME280;34587;48.816;9.420;2023-05-19T17:19:23;98984.34;;;15.82;57.01